sensor_id;sensor_type;location;lat;lon;timestamp;temperature;humidity
69895;DHT22;57172;52.034;5.090;2023-07-31T00:01:21;16.40;98.70
69895;DHT22;57172;52.034;5.090;2023-07-31T00:03:48;16.50;98.90
69895;DHT22;57172;52.034;5.090;2023-07-31T00:06:16;16.50;98.90
69895;DHT22;57172;52.034;5.090;2023-07-31T00:08:43;16.60;99.10
69895;DHT22;57172;52.034;5.090;2023-07-31T00:11:10;16.70;99.50
69895;DHT22;57172;52.034;5.090;2023-07-31T00:13:37;16.80;99.60
69895;DHT22;57172;52.034;5.090;2023-07-31T00:16:04;16.90;99.50
69895;DHT22;57172;52.034;5.090;2023-07-31T00:18:31;17.00;99.30
69895;DHT22;57172;52.034;5.090;2023-07-31T00:20:58;17.10;99.20
69895;DHT22;57172;52.034;5.090;2023-07-31T00:23:25;17.10;99.00
69895;DHT22;57172;52.034;5.090;2023-07-31T00:25:52;17.20;98.80
69895;DHT22;57172;52.034;5.090;2023-07-31T00:28:19;17.30;98.60
69895;DHT22;57172;52.034;5.090;2023-07-31T00:30:46;17.30;98.30
69895;DHT22;57172;52.034;5.090;2023-07-31T00:33:13;17.30;98.10
69895;DHT22;57172;52.034;5.090;2023-07-31T00:35:40;17.40;97.90
69895;DHT22;57172;52.034;5.090;2023-07-31T00:38:07;17.40;97.70
69895;DHT22;57172;52.034;5.090;2023-07-31T00:40:37;17.40;97.40
69895;DHT22;57172;52.034;5.090;2023-07-31T00:43:04;17.40;97.10
69895;DHT22;57172;52.034;5.090;2023-07-31T00:45:32;17.40;97.10
69895;DHT22;57172;52.034;5.090;2023-07-31T00:47:59;17.40;97.00
69895;DHT22;57172;52.034;5.090;2023-07-31T00:50:27;17.40;97.00
69895;DHT22;57172;52.034;5.090;2023-07-31T00:52:54;17.40;97.00
69895;DHT22;57172;52.034;5.090;2023-07-31T00:55:22;17.40;96.90
69895;DHT22;57172;52.034;5.090;2023-07-31T00:57:49;17.30;96.60
69895;DHT22;57172;52.034;5.090;2023-07-31T01:00:19;17.30;96.50
69895;DHT22;57172;52.034;5.090;2023-07-31T01:02:46;17.30;96.70
69895;DHT22;57172;52.034;5.090;2023-07-31T01:05:13;17.30;96.80
69895;DHT22;57172;52.034;5.090;2023-07-31T01:08:12;17.30;96.90
69895;DHT22;57172;52.034;5.090;2023-07-31T01:10:49;17.30;96.70
69895;DHT22;57172;52.034;5.090;2023-07-31T01:13:18;17.20;96.80
69895;DHT22;57172;52.034;5.090;2023-07-31T01:15:45;17.20;96.90
69895;DHT22;57172;52.034;5.090;2023-07-31T01:18:12;17.20;97.10
69895;DHT22;57172;52.034;5.090;2023-07-31T01:20:42;17.10;97.20
69895;DHT22;57172;52.034;5.090;2023-07-31T01:23:39;17.10;97.30
69895;DHT22;57172;52.034;5.090;2023-07-31T01:26:20;17.10;97.60
69895;DHT22;57172;52.034;5.090;2023-07-31T01:29:12;17.10;97.70
69895;DHT22;57172;52.034;5.090;2023-07-31T01:31:47;17.10;97.90
69895;DHT22;57172;52.034;5.090;2023-07-31T01:34:16;17.10;97.90
69895;DHT22;57172;52.034;5.090;2023-07-31T01:36:44;17.10;97.90
69895;DHT22;57172;52.034;5.090;2023-07-31T01:39:11;17.10;97.80
69895;DHT22;57172;52.034;5.090;2023-07-31T01:41:38;17.20;97.70
69895;DHT22;57172;52.034;5.090;2023-07-31T01:44:05;17.20;97.60
69895;DHT22;57172;52.034;5.090;2023-07-31T01:46:33;17.20;97.30
69895;DHT22;57172;52.034;5.090;2023-07-31T01:49:01;17.10;97.10
69895;DHT22;57172;52.034;5.090;2023-07-31T01:51:28;17.10;97.20
69895;DHT22;57172;52.034;5.090;2023-07-31T01:53:55;17.10;97.10
69895;DHT22;57172;52.034;5.090;2023-07-31T01:56:22;17.00;97.00
69895;DHT22;57172;52.034;5.090;2023-07-31T01:58:49;17.00;97.00
69895;DHT22;57172;52.034;5.090;2023-07-31T02:01:16;17.00;97.10
69895;DHT22;57172;52.034;5.090;2023-07-31T02:03:43;17.00;97.20
69895;DHT22;57172;52.034;5.090;2023-07-31T02:06:10;17.00;97.50
69895;DHT22;57172;52.034;5.090;2023-07-31T02:08:37;17.00;97.50
69895;DHT22;57172;52.034;5.090;2023-07-31T02:11:04;17.00;97.50
69895;DHT22;57172;52.034;5.090;2023-07-31T02:13:31;17.00;97.40
69895;DHT22;57172;52.034;5.090;2023-07-31T02:15:58;17.00;97.40
69895;DHT22;57172;52.034;5.090;2023-07-31T02:18:25;17.10;97.40
69895;DHT22;57172;52.034;5.090;2023-07-31T02:20:52;17.10;97.50
69895;DHT22;57172;52.034;5.090;2023-07-31T02:23:19;17.10;97.40
69895;DHT22;57172;52.034;5.090;2023-07-31T02:25:47;17.10;97.50
69895;DHT22;57172;52.034;5.090;2023-07-31T02:28:14;17.20;97.50
69895;DHT22;57172;52.034;5.090;2023-07-31T02:30:44;17.20;97.50
69895;DHT22;57172;52.034;5.090;2023-07-31T02:33:14;17.20;97.40
69895;DHT22;57172;52.034;5.090;2023-07-31T02:35:41;17.30;97.40
69895;DHT22;57172;52.034;5.090;2023-07-31T02:38:08;17.30;97.20
69895;DHT22;57172;52.034;5.090;2023-07-31T02:40:35;17.30;97.10
69895;DHT22;57172;52.034;5.090;2023-07-31T02:43:02;17.30;96.90
69895;DHT22;57172;52.034;5.090;2023-07-31T02:45:29;17.30;97.00
69895;DHT22;57172;52.034;5.090;2023-07-31T02:47:56;17.40;96.90
69895;DHT22;57172;52.034;5.090;2023-07-31T02:50:23;17.40;96.80
69895;DHT22;57172;52.034;5.090;2023-07-31T02:52:51;17.40;96.60
69895;DHT22;57172;52.034;5.090;2023-07-31T02:55:18;17.40;96.30
69895;DHT22;57172;52.034;5.090;2023-07-31T02:57:45;17.40;96.10
69895;DHT22;57172;52.034;5.090;2023-07-31T03:00:12;17.40;96.10
69895;DHT22;57172;52.034;5.090;2023-07-31T03:02:39;17.40;96.00
69895;DHT22;57172;52.034;5.090;2023-07-31T03:05:06;17.40;95.80
69895;DHT22;57172;52.034;5.090;2023-07-31T03:07:33;17.40;95.70
69895;DHT22;57172;52.034;5.090;2023-07-31T03:10:00;17.40;95.50
69895;DHT22;57172;52.034;5.090;2023-07-31T03:12:28;17.40;95.10
69895;DHT22;57172;52.034;5.090;2023-07-31T03:14:55;17.30;95.00
69895;DHT22;57172;52.034;5.090;2023-07-31T03:17:21;17.30;94.60
69895;DHT22;57172;52.034;5.090;2023-07-31T03:19:49;17.30;94.70
69895;DHT22;57172;52.034;5.090;2023-07-31T03:22:16;17.30;94.60
69895;DHT22;57172;52.034;5.090;2023-07-31T03:24:42;17.30;94.10
69895;DHT22;57172;52.034;5.090;2023-07-31T03:27:09;17.30;94.20
69895;DHT22;57172;52.034;5.090;2023-07-31T03:29:36;17.30;94.40
69895;DHT22;57172;52.034;5.090;2023-07-31T03:32:04;17.30;94.40
69895;DHT22;57172;52.034;5.090;2023-07-31T03:34:31;17.30;94.30
69895;DHT22;57172;52.034;5.090;2023-07-31T03:36:58;17.30;94.20
69895;DHT22;57172;52.034;5.090;2023-07-31T03:39:25;17.30;94.20
69895;DHT22;57172;52.034;5.090;2023-07-31T03:41:53;17.30;94.10
69895;DHT22;57172;52.034;5.090;2023-07-31T03:44:20;17.30;94.10
69895;DHT22;57172;52.034;5.090;2023-07-31T03:46:47;17.30;93.90
69895;DHT22;57172;52.034;5.090;2023-07-31T03:49:14;17.30;94.20
69895;DHT22;57172;52.034;5.090;2023-07-31T03:51:41;17.30;93.90
69895;DHT22;57172;52.034;5.090;2023-07-31T03:54:08;17.30;94.10
69895;DHT22;57172;52.034;5.090;2023-07-31T03:56:35;17.30;94.30
69895;DHT22;57172;52.034;5.090;2023-07-31T03:59:02;17.30;94.30
69895;DHT22;57172;52.034;5.090;2023-07-31T04:01:29;17.30;94.30
69895;DHT22;57172;52.034;5.090;2023-07-31T04:03:56;17.30;94.00
69895;DHT22;57172;52.034;5.090;2023-07-31T04:06:23;17.30;93.90
69895;DHT22;57172;52.034;5.090;2023-07-31T04:08:50;17.30;93.80
69895;DHT22;57172;52.034;5.090;2023-07-31T04:11:17;17.30;93.70
69895;DHT22;57172;52.034;5.090;2023-07-31T04:13:44;17.30;93.60
69895;DHT22;57172;52.034;5.090;2023-07-31T04:16:11;17.20;93.10
69895;DHT22;57172;52.034;5.090;2023-07-31T04:18:38;17.20;93.10
69895;DHT22;57172;52.034;5.090;2023-07-31T04:21:05;17.10;93.10
69895;DHT22;57172;52.034;5.090;2023-07-31T04:23:32;17.00;93.40
69895;DHT22;57172;52.034;5.090;2023-07-31T04:25:59;16.90;93.80
69895;DHT22;57172;52.034;5.090;2023-07-31T04:28:26;16.90;94.20
69895;DHT22;57172;52.034;5.090;2023-07-31T04:30:53;16.80;94.70
69895;DHT22;57172;52.034;5.090;2023-07-31T04:33:20;16.80;94.90
69895;DHT22;57172;52.034;5.090;2023-07-31T04:35:51;16.80;95.20
69895;DHT22;57172;52.034;5.090;2023-07-31T04:38:20;16.80;95.30
69895;DHT22;57172;52.034;5.090;2023-07-31T04:40:47;16.80;94.80
69895;DHT22;57172;52.034;5.090;2023-07-31T04:43:14;16.80;94.70
69895;DHT22;57172;52.034;5.090;2023-07-31T04:45:48;16.70;94.90
69895;DHT22;57172;52.034;5.090;2023-07-31T04:48:15;16.70;95.40
69895;DHT22;57172;52.034;5.090;2023-07-31T04:50:42;16.70;95.40
69895;DHT22;57172;52.034;5.090;2023-07-31T04:53:09;16.70;95.40
69895;DHT22;57172;52.034;5.090;2023-07-31T04:55:36;16.60;95.60
69895;DHT22;57172;52.034;5.090;2023-07-31T04:58:03;16.60;95.70
69895;DHT22;57172;52.034;5.090;2023-07-31T05:00:29;16.50;95.70
69895;DHT22;57172;52.034;5.090;2023-07-31T05:02:56;16.50;95.90
69895;DHT22;57172;52.034;5.090;2023-07-31T05:05:24;16.50;96.10
69895;DHT22;57172;52.034;5.090;2023-07-31T05:07:51;16.50;96.10
69895;DHT22;57172;52.034;5.090;2023-07-31T05:10:18;16.40;96.40
69895;DHT22;57172;52.034;5.090;2023-07-31T05:12:44;16.40;96.80
69895;DHT22;57172;52.034;5.090;2023-07-31T05:15:12;16.40;97.10
69895;DHT22;57172;52.034;5.090;2023-07-31T05:17:38;16.30;97.30
69895;DHT22;57172;52.034;5.090;2023-07-31T05:20:06;16.30;97.60
69895;DHT22;57172;52.034;5.090;2023-07-31T05:22:33;16.30;97.90
69895;DHT22;57172;52.034;5.090;2023-07-31T05:25:00;16.30;98.00
69895;DHT22;57172;52.034;5.090;2023-07-31T05:27:27;16.40;98.20
69895;DHT22;57172;52.034;5.090;2023-07-31T05:29:54;16.40;98.30
69895;DHT22;57172;52.034;5.090;2023-07-31T05:32:21;16.40;98.60
69895;DHT22;57172;52.034;5.090;2023-07-31T05:34:51;16.40;98.60
69895;DHT22;57172;52.034;5.090;2023-07-31T05:37:19;16.40;98.60
69895;DHT22;57172;52.034;5.090;2023-07-31T05:39:46;16.40;98.80
69895;DHT22;57172;52.034;5.090;2023-07-31T05:42:13;16.40;98.90
69895;DHT22;57172;52.034;5.090;2023-07-31T05:44:40;16.40;98.90
69895;DHT22;57172;52.034;5.090;2023-07-31T05:47:07;16.40;98.90
69895;DHT22;57172;52.034;5.090;2023-07-31T05:49:34;16.40;98.80
69895;DHT22;57172;52.034;5.090;2023-07-31T05:52:02;16.40;98.70
69895;DHT22;57172;52.034;5.090;2023-07-31T05:54:29;16.40;98.90
69895;DHT22;57172;52.034;5.090;2023-07-31T05:56:56;16.40;98.90
69895;DHT22;57172;52.034;5.090;2023-07-31T05:59:23;16.40;99.20
69895;DHT22;57172;52.034;5.090;2023-07-31T06:01:50;16.50;99.00
69895;DHT22;57172;52.034;5.090;2023-07-31T06:04:17;16.50;99.00
69895;DHT22;57172;52.034;5.090;2023-07-31T06:06:44;16.50;99.10
69895;DHT22;57172;52.034;5.090;2023-07-31T06:09:11;16.50;99.30
69895;DHT22;57172;52.034;5.090;2023-07-31T06:11:38;16.50;99.50
69895;DHT22;57172;52.034;5.090;2023-07-31T06:14:05;16.50;99.50
69895;DHT22;57172;52.034;5.090;2023-07-31T06:16:32;16.60;99.40
69895;DHT22;57172;52.034;5.090;2023-07-31T06:18:59;16.60;99.40
69895;DHT22;57172;52.034;5.090;2023-07-31T06:21:26;16.60;99.40
69895;DHT22;57172;52.034;5.090;2023-07-31T06:23:54;16.60;99.30
69895;DHT22;57172;52.034;5.090;2023-07-31T06:26:21;16.60;99.40
69895;DHT22;57172;52.034;5.090;2023-07-31T06:28:48;16.70;99.50
69895;DHT22;57172;52.034;5.090;2023-07-31T06:31:15;16.70;99.40
69895;DHT22;57172;52.034;5.090;2023-07-31T06:33:42;16.70;99.60
69895;DHT22;57172;52.034;5.090;2023-07-31T06:36:09;16.70;99.50
69895;DHT22;57172;52.034;5.090;2023-07-31T06:38:36;16.70;99.40
69895;DHT22;57172;52.034;5.090;2023-07-31T06:41:04;16.70;99.50
69895;DHT22;57172;52.034;5.090;2023-07-31T06:43:31;16.70;99.90
69895;DHT22;57172;52.034;5.090;2023-07-31T06:46:04;16.80;99.90
69895;DHT22;57172;52.034;5.090;2023-07-31T06:48:31;16.80;99.90
69895;DHT22;57172;52.034;5.090;2023-07-31T06:50:58;16.90;99.90
69895;DHT22;57172;52.034;5.090;2023-07-31T06:53:25;16.90;99.90
69895;DHT22;57172;52.034;5.090;2023-07-31T06:55:52;17.00;99.90
69895;DHT22;57172;52.034;5.090;2023-07-31T06:58:21;17.00;99.90
69895;DHT22;57172;52.034;5.090;2023-07-31T07:00:48;17.00;99.90
69895;DHT22;57172;52.034;5.090;2023-07-31T07:03:18;17.10;99.90
69895;DHT22;57172;52.034;5.090;2023-07-31T07:05:45;17.10;99.90
69895;DHT22;57172;52.034;5.090;2023-07-31T07:08:12;17.20;99.90
69895;DHT22;57172;52.034;5.090;2023-07-31T07:10:39;17.20;99.90
69895;DHT22;57172;52.034;5.090;2023-07-31T07:13:06;17.20;99.70
69895;DHT22;57172;52.034;5.090;2023-07-31T07:15:33;17.20;99.80
69895;DHT22;57172;52.034;5.090;2023-07-31T07:18:00;17.20;99.40
69895;DHT22;57172;52.034;5.090;2023-07-31T07:20:27;17.20;99.50
69895;DHT22;57172;52.034;5.090;2023-07-31T07:22:54;17.20;99.90
69895;DHT22;57172;52.034;5.090;2023-07-31T07:25:21;17.20;99.70
69895;DHT22;57172;52.034;5.090;2023-07-31T07:27:48;17.20;99.70
69895;DHT22;57172;52.034;5.090;2023-07-31T07:30:15;17.30;99.90
69895;DHT22;57172;52.034;5.090;2023-07-31T07:32:42;17.30;99.70
69895;DHT22;57172;52.034;5.090;2023-07-31T07:35:09;17.30;99.90
69895;DHT22;57172;52.034;5.090;2023-07-31T07:37:36;17.30;99.90
69895;DHT22;57172;52.034;5.090;2023-07-31T07:40:03;17.40;99.90
69895;DHT22;57172;52.034;5.090;2023-07-31T07:42:30;17.40;99.90
69895;DHT22;57172;52.034;5.090;2023-07-31T07:44:58;17.50;99.90
69895;DHT22;57172;52.034;5.090;2023-07-31T07:47:25;17.50;99.90
69895;DHT22;57172;52.034;5.090;2023-07-31T07:49:55;17.50;99.50
69895;DHT22;57172;52.034;5.090;2023-07-31T07:52:22;17.50;99.40
69895;DHT22;57172;52.034;5.090;2023-07-31T07:54:48;17.50;99.50
69895;DHT22;57172;52.034;5.090;2023-07-31T07:57:16;17.60;99.80
69895;DHT22;57172;52.034;5.090;2023-07-31T07:59:43;17.60;99.90
69895;DHT22;57172;52.034;5.090;2023-07-31T08:02:10;17.60;99.90
69895;DHT22;57172;52.034;5.090;2023-07-31T08:04:37;17.70;99.90
69895;DHT22;57172;52.034;5.090;2023-07-31T08:07:04;17.70;99.80
69895;DHT22;57172;52.034;5.090;2023-07-31T08:09:31;17.70;99.70
69895;DHT22;57172;52.034;5.090;2023-07-31T08:11:58;17.70;99.90
69895;DHT22;57172;52.034;5.090;2023-07-31T08:14:29;17.80;99.80
69895;DHT22;57172;52.034;5.090;2023-07-31T08:16:59;17.80;99.30
69895;DHT22;57172;52.034;5.090;2023-07-31T08:19:26;17.80;99.60
69895;DHT22;57172;52.034;5.090;2023-07-31T08:21:55;17.90;99.50
69895;DHT22;57172;52.034;5.090;2023-07-31T08:24:24;17.80;99.20
69895;DHT22;57172;52.034;5.090;2023-07-31T08:26:51;17.90;99.30
69895;DHT22;57172;52.034;5.090;2023-07-31T08:29:18;17.90;99.40
69895;DHT22;57172;52.034;5.090;2023-07-31T08:31:45;17.90;99.80
69895;DHT22;57172;52.034;5.090;2023-07-31T08:34:12;18.00;99.90
69895;DHT22;57172;52.034;5.090;2023-07-31T08:36:39;18.00;99.90
69895;DHT22;57172;52.034;5.090;2023-07-31T08:39:07;18.10;99.80
69895;DHT22;57172;52.034;5.090;2023-07-31T08:41:40;18.10;99.70
69895;DHT22;57172;52.034;5.090;2023-07-31T08:44:07;18.20;99.90
69895;DHT22;57172;52.034;5.090;2023-07-31T08:46:35;18.20;99.10
69895;DHT22;57172;52.034;5.090;2023-07-31T08:49:05;18.20;98.60
69895;DHT22;57172;52.034;5.090;2023-07-31T08:51:35;18.20;99.00
69895;DHT22;57172;52.034;5.090;2023-07-31T08:54:03;18.20;99.30
69895;DHT22;57172;52.034;5.090;2023-07-31T08:56:32;18.30;99.70
69895;DHT22;57172;52.034;5.090;2023-07-31T08:59:02;18.30;99.00
69895;DHT22;57172;52.034;5.090;2023-07-31T09:01:36;18.30;98.30
69895;DHT22;57172;52.034;5.090;2023-07-31T09:04:04;18.30;97.90
69895;DHT22;57172;52.034;5.090;2023-07-31T09:06:32;18.30;98.10
69895;DHT22;57172;52.034;5.090;2023-07-31T09:09:00;18.20;98.10
69895;DHT22;57172;52.034;5.090;2023-07-31T09:11:27;18.20;98.40
69895;DHT22;57172;52.034;5.090;2023-07-31T09:13:57;18.20;99.00
69895;DHT22;57172;52.034;5.090;2023-07-31T09:16:28;18.30;99.40
69895;DHT22;57172;52.034;5.090;2023-07-31T09:18:58;18.30;99.20
69895;DHT22;57172;52.034;5.090;2023-07-31T09:21:25;18.40;99.10
69895;DHT22;57172;52.034;5.090;2023-07-31T09:23:54;18.40;99.80
69895;DHT22;57172;52.034;5.090;2023-07-31T09:26:35;18.50;99.50
69895;DHT22;57172;52.034;5.090;2023-07-31T09:29:07;18.50;99.90
69895;DHT22;57172;52.034;5.090;2023-07-31T09:31:45;18.60;99.70
69895;DHT22;57172;52.034;5.090;2023-07-31T09:34:12;18.60;99.70
69895;DHT22;57172;52.034;5.090;2023-07-31T09:36:42;18.60;99.00
69895;DHT22;57172;52.034;5.090;2023-07-31T09:39:10;18.60;98.70
69895;DHT22;57172;52.034;5.090;2023-07-31T09:41:39;18.60;97.80
69895;DHT22;57172;52.034;5.090;2023-07-31T09:44:07;18.50;97.80
69895;DHT22;57172;52.034;5.090;2023-07-31T09:46:37;18.50;98.20
69895;DHT22;57172;52.034;5.090;2023-07-31T09:49:10;18.50;98.60
69895;DHT22;57172;52.034;5.090;2023-07-31T09:51:42;18.50;98.90
69895;DHT22;57172;52.034;5.090;2023-07-31T09:54:13;18.50;99.10
69895;DHT22;57172;52.034;5.090;2023-07-31T09:56:44;18.60;99.30
69895;DHT22;57172;52.034;5.090;2023-07-31T09:59:14;18.60;99.70
69895;DHT22;57172;52.034;5.090;2023-07-31T10:01:42;18.70;99.60
69895;DHT22;57172;52.034;5.090;2023-07-31T10:04:10;18.80;99.20
69895;DHT22;57172;52.034;5.090;2023-07-31T10:06:39;18.80;98.00
69895;DHT22;57172;52.034;5.090;2023-07-31T10:09:09;18.80;97.80
69895;DHT22;57172;52.034;5.090;2023-07-31T10:11:41;18.80;97.80
69895;DHT22;57172;52.034;5.090;2023-07-31T10:14:11;18.80;97.80
69895;DHT22;57172;52.034;5.090;2023-07-31T10:16:38;18.80;97.60
69895;DHT22;57172;52.034;5.090;2023-07-31T10:19:08;18.80;98.20
69895;DHT22;57172;52.034;5.090;2023-07-31T10:21:36;18.80;98.60
69895;DHT22;57172;52.034;5.090;2023-07-31T10:24:05;18.90;98.40
69895;DHT22;57172;52.034;5.090;2023-07-31T10:26:32;18.90;98.30
69895;DHT22;57172;52.034;5.090;2023-07-31T10:29:00;18.90;97.70
69895;DHT22;57172;52.034;5.090;2023-07-31T10:31:28;18.90;97.70
69895;DHT22;57172;52.034;5.090;2023-07-31T10:33:57;18.90;97.00
69895;DHT22;57172;52.034;5.090;2023-07-31T10:36:26;18.80;97.10
69895;DHT22;57172;52.034;5.090;2023-07-31T10:38:55;18.90;97.90
69895;DHT22;57172;52.034;5.090;2023-07-31T10:41:29;18.90;98.80
69895;DHT22;57172;52.034;5.090;2023-07-31T10:43:59;19.00;99.30
69895;DHT22;57172;52.034;5.090;2023-07-31T10:46:28;19.00;98.60
69895;DHT22;57172;52.034;5.090;2023-07-31T10:49:00;19.00;97.90
69895;DHT22;57172;52.034;5.090;2023-07-31T10:51:35;18.90;97.30
69895;DHT22;57172;52.034;5.090;2023-07-31T10:54:13;18.80;97.60
69895;DHT22;57172;52.034;5.090;2023-07-31T10:56:45;18.80;97.80
69895;DHT22;57172;52.034;5.090;2023-07-31T10:59:13;18.80;98.30
69895;DHT22;57172;52.034;5.090;2023-07-31T11:01:54;18.80;98.90
69895;DHT22;57172;52.034;5.090;2023-07-31T11:04:25;18.80;98.50
69895;DHT22;57172;52.034;5.090;2023-07-31T11:07:00;18.70;98.00
69895;DHT22;57172;52.034;5.090;2023-07-31T11:09:29;18.60;98.30
69895;DHT22;57172;52.034;5.090;2023-07-31T11:11:57;18.60;98.60
69895;DHT22;57172;52.034;5.090;2023-07-31T11:14:24;18.60;99.10
69895;DHT22;57172;52.034;5.090;2023-07-31T11:16:52;18.60;99.10
69895;DHT22;57172;52.034;5.090;2023-07-31T11:19:25;18.60;99.10
69895;DHT22;57172;52.034;5.090;2023-07-31T11:21:52;18.60;99.40
69895;DHT22;57172;52.034;5.090;2023-07-31T11:24:20;18.60;99.70
69895;DHT22;57172;52.034;5.090;2023-07-31T11:26:53;18.60;99.90
69895;DHT22;57172;52.034;5.090;2023-07-31T11:29:21;18.70;99.90
69895;DHT22;57172;52.034;5.090;2023-07-31T11:31:53;18.70;99.70
69895;DHT22;57172;52.034;5.090;2023-07-31T11:34:20;18.70;99.90
69895;DHT22;57172;52.034;5.090;2023-07-31T11:36:56;18.80;99.80
69895;DHT22;57172;52.034;5.090;2023-07-31T11:39:23;18.80;99.50
69895;DHT22;57172;52.034;5.090;2023-07-31T11:41:50;18.80;99.00
69895;DHT22;57172;52.034;5.090;2023-07-31T11:44:17;18.70;99.30
69895;DHT22;57172;52.034;5.090;2023-07-31T11:46:56;18.70;99.40
69895;DHT22;57172;52.034;5.090;2023-07-31T11:49:24;18.70;99.60
69895;DHT22;57172;52.034;5.090;2023-07-31T11:51:51;18.70;99.90
69895;DHT22;57172;52.034;5.090;2023-07-31T11:54:18;18.80;99.80
69895;DHT22;57172;52.034;5.090;2023-07-31T11:56:45;18.80;99.90
69895;DHT22;57172;52.034;5.090;2023-07-31T11:59:12;19.00;99.90
69895;DHT22;57172;52.034;5.090;2023-07-31T12:01:39;19.00;99.80
69895;DHT22;57172;52.034;5.090;2023-07-31T12:04:07;19.00;99.20
69895;DHT22;57172;52.034;5.090;2023-07-31T12:06:35;19.10;99.00
69895;DHT22;57172;52.034;5.090;2023-07-31T12:09:05;19.10;99.00
69895;DHT22;57172;52.034;5.090;2023-07-31T12:11:51;19.10;99.20
69895;DHT22;57172;52.034;5.090;2023-07-31T12:14:23;19.10;98.20
69895;DHT22;57172;52.034;5.090;2023-07-31T12:17:08;19.10;97.80
69895;DHT22;57172;52.034;5.090;2023-07-31T12:19:36;19.10;98.20
69895;DHT22;57172;52.034;5.090;2023-07-31T12:22:12;19.10;98.70
69895;DHT22;57172;52.034;5.090;2023-07-31T12:24:43;19.10;98.90
69895;DHT22;57172;52.034;5.090;2023-07-31T12:27:14;19.10;99.50
69895;DHT22;57172;52.034;5.090;2023-07-31T12:29:42;19.20;99.70
69895;DHT22;57172;52.034;5.090;2023-07-31T12:32:20;19.30;99.00
69895;DHT22;57172;52.034;5.090;2023-07-31T12:34:47;19.30;98.70
69895;DHT22;57172;52.034;5.090;2023-07-31T12:37:14;19.30;98.50
69895;DHT22;57172;52.034;5.090;2023-07-31T12:39:41;19.30;98.20
69895;DHT22;57172;52.034;5.090;2023-07-31T12:42:08;19.30;98.50
69895;DHT22;57172;52.034;5.090;2023-07-31T12:44:35;19.20;97.30
69895;DHT22;57172;52.034;5.090;2023-07-31T12:47:02;19.20;97.00
69895;DHT22;57172;52.034;5.090;2023-07-31T12:49:30;19.00;96.90
69895;DHT22;57172;52.034;5.090;2023-07-31T12:51:57;18.90;97.70
69895;DHT22;57172;52.034;5.090;2023-07-31T12:54:25;18.90;98.60
69895;DHT22;57172;52.034;5.090;2023-07-31T12:56:51;18.80;99.00
69895;DHT22;57172;52.034;5.090;2023-07-31T12:59:18;18.80;99.50
69895;DHT22;57172;52.034;5.090;2023-07-31T13:01:45;18.90;99.50
69895;DHT22;57172;52.034;5.090;2023-07-31T13:04:12;18.90;99.30
69895;DHT22;57172;52.034;5.090;2023-07-31T13:06:40;18.80;99.60
69895;DHT22;57172;52.034;5.090;2023-07-31T13:09:08;18.80;99.90
69895;DHT22;57172;52.034;5.090;2023-07-31T13:11:36;18.90;99.90
69895;DHT22;57172;52.034;5.090;2023-07-31T13:14:03;18.90;99.90
69895;DHT22;57172;52.034;5.090;2023-07-31T13:16:30;18.90;99.80
69895;DHT22;57172;52.034;5.090;2023-07-31T13:18:57;18.90;99.90
69895;DHT22;57172;52.034;5.090;2023-07-31T13:21:24;18.90;99.60
69895;DHT22;57172;52.034;5.090;2023-07-31T13:23:51;18.90;99.90
69895;DHT22;57172;52.034;5.090;2023-07-31T13:26:18;18.80;99.90
69895;DHT22;57172;52.034;5.090;2023-07-31T13:28:45;18.90;99.90
69895;DHT22;57172;52.034;5.090;2023-07-31T13:31:12;18.90;99.90
69895;DHT22;57172;52.034;5.090;2023-07-31T13:33:39;18.90;99.90
69895;DHT22;57172;52.034;5.090;2023-07-31T13:36:09;19.00;99.90
69895;DHT22;57172;52.034;5.090;2023-07-31T13:38:37;19.10;99.90
69895;DHT22;57172;52.034;5.090;2023-07-31T13:41:04;19.10;99.90
69895;DHT22;57172;52.034;5.090;2023-07-31T13:43:32;19.20;99.90
69895;DHT22;57172;52.034;5.090;2023-07-31T13:45:59;19.20;99.90
69895;DHT22;57172;52.034;5.090;2023-07-31T13:48:34;19.10;99.90
69895;DHT22;57172;52.034;5.090;2023-07-31T13:51:02;19.10;99.90
69895;DHT22;57172;52.034;5.090;2023-07-31T13:53:30;19.10;99.90
69895;DHT22;57172;52.034;5.090;2023-07-31T13:55:57;19.10;99.90
69895;DHT22;57172;52.034;5.090;2023-07-31T13:58:24;19.10;99.90
69895;DHT22;57172;52.034;5.090;2023-07-31T14:00:51;19.20;99.90
69895;DHT22;57172;52.034;5.090;2023-07-31T14:03:18;19.20;99.90
69895;DHT22;57172;52.034;5.090;2023-07-31T14:05:45;19.20;99.90
69895;DHT22;57172;52.034;5.090;2023-07-31T14:08:13;19.30;99.90
69895;DHT22;57172;52.034;5.090;2023-07-31T14:10:39;19.30;99.90
69895;DHT22;57172;52.034;5.090;2023-07-31T14:13:06;19.40;99.90
69895;DHT22;57172;52.034;5.090;2023-07-31T14:15:33;19.40;99.90
69895;DHT22;57172;52.034;5.090;2023-07-31T14:18:02;19.40;99.90
69895;DHT22;57172;52.034;5.090;2023-07-31T14:20:30;19.40;99.90
69895;DHT22;57172;52.034;5.090;2023-07-31T14:22:57;19.30;99.90
69895;DHT22;57172;52.034;5.090;2023-07-31T14:25:24;19.30;99.90
69895;DHT22;57172;52.034;5.090;2023-07-31T14:27:51;19.20;99.90
69895;DHT22;57172;52.034;5.090;2023-07-31T14:30:18;19.20;99.90
69895;DHT22;57172;52.034;5.090;2023-07-31T14:32:46;19.10;99.90
69895;DHT22;57172;52.034;5.090;2023-07-31T14:35:13;19.00;99.90
69895;DHT22;57172;52.034;5.090;2023-07-31T14:37:42;19.00;99.90
69895;DHT22;57172;52.034;5.090;2023-07-31T14:40:11;19.00;99.90
69895;DHT22;57172;52.034;5.090;2023-07-31T14:42:39;19.00;99.90
69895;DHT22;57172;52.034;5.090;2023-07-31T14:45:07;18.90;99.90
69895;DHT22;57172;52.034;5.090;2023-07-31T14:47:34;18.90;99.90
69895;DHT22;57172;52.034;5.090;2023-07-31T14:50:03;18.90;99.90
69895;DHT22;57172;52.034;5.090;2023-07-31T14:52:30;18.90;99.90
69895;DHT22;57172;52.034;5.090;2023-07-31T14:54:57;18.90;99.90
69895;DHT22;57172;52.034;5.090;2023-07-31T14:57:24;18.90;99.90
69895;DHT22;57172;52.034;5.090;2023-07-31T14:59:53;18.80;99.90
69895;DHT22;57172;52.034;5.090;2023-07-31T15:02:20;18.80;99.90
69895;DHT22;57172;52.034;5.090;2023-07-31T15:04:47;18.80;99.90
69895;DHT22;57172;52.034;5.090;2023-07-31T15:07:14;18.80;99.90
69895;DHT22;57172;52.034;5.090;2023-07-31T15:09:41;18.80;99.90
69895;DHT22;57172;52.034;5.090;2023-07-31T15:12:08;18.80;99.90
69895;DHT22;57172;52.034;5.090;2023-07-31T15:14:35;18.70;99.90
69895;DHT22;57172;52.034;5.090;2023-07-31T15:17:03;18.70;99.90
69895;DHT22;57172;52.034;5.090;2023-07-31T15:19:30;18.70;99.90
69895;DHT22;57172;52.034;5.090;2023-07-31T15:22:02;18.70;99.90
69895;DHT22;57172;52.034;5.090;2023-07-31T15:24:29;18.70;99.90
69895;DHT22;57172;52.034;5.090;2023-07-31T15:26:56;18.60;99.90
69895;DHT22;57172;52.034;5.090;2023-07-31T15:29:23;18.60;99.90
69895;DHT22;57172;52.034;5.090;2023-07-31T15:31:50;18.70;99.90
69895;DHT22;57172;52.034;5.090;2023-07-31T15:34:17;18.60;99.90
69895;DHT22;57172;52.034;5.090;2023-07-31T15:36:46;18.60;99.90